Kossau — V2CV9 — position and weather

sailwx.info

Track history (hours):
 
Tides and Currents Weather Stations Pressure Air Temp Water Temp Dewpoint Dewpoint Depression Visibility Wind Speed Wind Dir Waves Ship Positions

Kossau

Last reported at 2018-Jun-18 15:39 UTC. Time now 2018-Jun-20 11:23 UTC.
Position N 36°51' E 013°23'.

Length 88 m; draft 5.5 m.

Type: Cargo ship. MMSI: 305122000.

Date/timePositionNaut miles runAvg speedWind from/ knotsBaromVisibWave heightAir tempDewpointWater temp
2018-Jun-18 15:39N 36°51' E 013°23'1 6.4
2018-Jun-18 15:30N 36°51' E 013°24'3 6.5
2018-Jun-18 14:59N 36°50' E 013°29'3 6.7
2018-Jun-18 14:30N 36°50' E 013°33'3 6.1
2018-Jun-18 14:00N 36°49' E 013°36'3 6.2
2018-Jun-18 13:30N 36°48' E 013°40'3 6.2
2018-Jun-18 13:00N 36°48' E 013°44'3 6.4
2018-Jun-18 12:30N 36°47' E 013°48'3 6.6
2018-Jun-18 12:00N 36°46' E 013°52'3 6.6
2018-Jun-18 11:30N 36°45' E 013°56'3 6.1
2018-Jun-18 10:58N 36°45' E 013°60'3 6.9
2018-Jun-18 10:30N 36°44' E 014°04'4 7.1
2018-Jun-18 10:00N 36°44' E 014°08'4 7.8
2018-Jun-18 09:30N 36°43' E 014°13'4 8.4
2018-Jun-18 09:00N 36°43' E 014°18'5 9.4
2018-Jun-18 08:30N 36°43' E 014°24'510.0
2018-Jun-18 08:00N 36°43' E 014°30'6 8.2
2018-Jun-18 07:16N 36°40' E 014°37'  
2018-Jun-15 14:12N 38°35' E 025°01'170 9.3
2018-Jun-14 19:52N 40°42' E 027°27'410.3
2018-Jun-14 19:27N 40°44' E 027°32'716.2
2018-Jun-14 19:00N 40°47' E 027°41'78 4.8
2018-Jun-14 02:51N 41°30' E 029°08'19 7.9
2018-Jun-14 00:27N 41°21' E 029°31'4 9.2
2018-Jun-13 23:58N 41°21' E 029°37'5 9.1
2018-Jun-13 23:22N 41°21' E 029°44'10 9.3
2018-Jun-13 22:21N 41°21' E 029°57'11 9.0
2018-Jun-13 21:04N 41°20' E 030°12'2 8.8
2018-Jun-13 20:51N 41°20' E 030°15'3 8.7
2018-Jun-13 20:30N 41°20' E 030°18'5 9.0
2018-Jun-13 20:00N 41°20' E 030°24'5 9.1
2018-Jun-13 19:30N 41°20' E 030°31'41 1.5
2018-Jun-12 16:51N 41°16' E 031°25'0 0.0
2018-Jun-12 06:42N 41°16' E 031°25'0 0.0
2018-Jun-12 06:30N 41°16' E 031°25'0 0.0
2018-Jun-12 05:48N 41°16' E 031°25'0 0.0
2018-Jun-12 05:30N 41°16' E 031°25'0 0.0
2018-Jun-12 04:57N 41°16' E 031°25'0 0.0
2018-Jun-12 04:30N 41°16' E 031°25'0 0.0
2018-Jun-12 03:57N 41°16' E 031°25'0 0.0
2018-Jun-10 19:23N 41°16' E 031°25'1 0.2
2018-Jun-10 10:09N 41°16' E 031°23'0 0.0
2018-Jun-10 09:09N 41°16' E 031°23'0 0.0
2018-Jun-10 08:57N 41°16' E 031°23'0 0.0
2018-Jun-10 08:09N 41°16' E 031°23'0 0.0
2018-Jun-10 08:00N 41°16' E 031°23'0 0.0
2018-Jun-10 07:30N 41°16' E 031°23'0 0.0
2018-Jun-10 04:54N 41°16' E 031°23'0 0.0
2018-Jun-10 04:27N 41°16' E 031°23'0 0.0
2018-Jun-10 03:54N 41°16' E 031°23'0 0.0
2018-Jun-10 03:24N 41°16' E 031°23'0 0.0
2018-Jun-10 02:45N 41°16' E 031°23'0 0.0
2018-Jun-10 02:30N 41°16' E 031°23'0 0.0
2018-Jun-10 00:57N 41°16' E 031°23'0 0.0
2018-Jun-10 00:21N 41°16' E 031°23'0 0.0
2018-Jun-09 23:39N 41°16' E 031°23'0 0.0
2018-Jun-09 23:15N 41°16' E 031°23'0 0.0
2018-Jun-09 23:00N 41°16' E 031°23'0 0.0
2018-Jun-09 22:21N 41°16' E 031°23'0 0.0
2018-Jun-09 22:00N 41°16' E 031°23'0 0.0
2018-Jun-09 21:30N 41°16' E 031°23'0 0.0
2018-Jun-09 21:00N 41°16' E 031°23'0 0.0
2018-Jun-09 20:27N 41°16' E 031°23'0 0.0
2018-Jun-09 19:54N 41°16' E 031°23'0 0.0
2018-Jun-09 19:30N 41°16' E 031°23'0 0.0
2018-Jun-09 18:39N 41°16' E 031°23'0 0.0
2018-Jun-09 18:30N 41°16' E 031°23'0 0.0
2018-Jun-09 18:00N 41°16' E 031°23'0 0.0
2018-Jun-09 17:30N 41°16' E 031°23'0 0.0
2018-Jun-09 17:00N 41°16' E 031°23'0 0.0
2018-Jun-09 16:30N 41°16' E 031°23'0 0.0
2018-Jun-09 16:00N 41°16' E 031°23'0 0.0
2018-Jun-09 14:54N 41°16' E 031°23'0 0.0
2018-Jun-09 14:30N 41°16' E 031°23'0 0.0
2018-Jun-09 14:00N 41°16' E 031°23'0 0.0
2018-Jun-09 13:18N 41°16' E 031°23'0 0.0
2018-Jun-09 13:00N 41°16' E 031°23'0 0.0
2018-Jun-09 12:30N 41°16' E 031°23'0 0.0
2018-Jun-09 04:18N 41°16' E 031°23'0 0.0
2018-Jun-08 22:45N 41°16' E 031°23'0 0.0
2018-Jun-08 18:45N 41°16' E 031°23'0 0.0
2018-Jun-08 18:27N 41°16' E 031°23'0 0.0
2018-Jun-08 16:54N 41°16' E 031°23'0 0.0
2018-Jun-08 16:27N 41°16' E 031°23'0 0.0
2018-Jun-08 15:57N 41°16' E 031°23'  
Track history (hours):
 
Tides and Currents Weather Stations Pressure Air Temp Water Temp Dewpoint Dewpoint Depression Visibility Wind Speed Wind Dir Waves Ship Positions

Kossau

Last reported at 2018-Jun-18 15:39 UTC. Time now 2018-Jun-20 11:23 UTC.
Position N 36°51' E 013°23'.

Length 88 m; draft 5.5 m.

Type: Cargo ship. MMSI: 305122000.

Date/timePositionNaut miles runAvg speedWind from/ knotsBaromVisibWave heightAir tempDewpointWater temp
2018-Jun-18 15:39N 36°51' E 013°23'1 6.4
2018-Jun-18 15:30N 36°51' E 013°24'3 6.5
2018-Jun-18 14:59N 36°50' E 013°29'3 6.7
2018-Jun-18 14:30N 36°50' E 013°33'3 6.1
2018-Jun-18 14:00N 36°49' E 013°36'3 6.2
2018-Jun-18 13:30N 36°48' E 013°40'3 6.2
2018-Jun-18 13:00N 36°48' E 013°44'3 6.4
2018-Jun-18 12:30N 36°47' E 013°48'3 6.6
2018-Jun-18 12:00N 36°46' E 013°52'3 6.6
2018-Jun-18 11:30N 36°45' E 013°56'3 6.1
2018-Jun-18 10:58N 36°45' E 013°60'3 6.9
2018-Jun-18 10:30N 36°44' E 014°04'4 7.1
2018-Jun-18 10:00N 36°44' E 014°08'4 7.8
2018-Jun-18 09:30N 36°43' E 014°13'4 8.4
2018-Jun-18 09:00N 36°43' E 014°18'5 9.4
2018-Jun-18 08:30N 36°43' E 014°24'510.0
2018-Jun-18 08:00N 36°43' E 014°30'6 8.2
2018-Jun-18 07:16N 36°40' E 014°37'  
2018-Jun-15 14:12N 38°35' E 025°01'170 9.3
2018-Jun-14 19:52N 40°42' E 027°27'410.3
2018-Jun-14 19:27N 40°44' E 027°32'716.2
2018-Jun-14 19:00N 40°47' E 027°41'78 4.8
2018-Jun-14 02:51N 41°30' E 029°08'19 7.9
2018-Jun-14 00:27N 41°21' E 029°31'4 9.2
2018-Jun-13 23:58N 41°21' E 029°37'5 9.1
2018-Jun-13 23:22N 41°21' E 029°44'10 9.3
2018-Jun-13 22:21N 41°21' E 029°57'11 9.0
2018-Jun-13 21:04N 41°20' E 030°12'2 8.8
2018-Jun-13 20:51N 41°20' E 030°15'3 8.7
2018-Jun-13 20:30N 41°20' E 030°18'5 9.0
2018-Jun-13 20:00N 41°20' E 030°24'5 9.1
2018-Jun-13 19:30N 41°20' E 030°31'41 1.5
2018-Jun-12 16:51N 41°16' E 031°25'0 0.0
2018-Jun-12 06:42N 41°16' E 031°25'0 0.0
2018-Jun-12 06:30N 41°16' E 031°25'0 0.0
2018-Jun-12 05:48N 41°16' E 031°25'0 0.0
2018-Jun-12 05:30N 41°16' E 031°25'0 0.0
2018-Jun-12 04:57N 41°16' E 031°25'0 0.0
2018-Jun-12 04:30N 41°16' E 031°25'0 0.0
2018-Jun-12 03:57N 41°16' E 031°25'0 0.0
2018-Jun-10 19:23N 41°16' E 031°25'1 0.2
2018-Jun-10 10:09N 41°16' E 031°23'0 0.0
2018-Jun-10 09:09N 41°16' E 031°23'0 0.0
2018-Jun-10 08:57N 41°16' E 031°23'0 0.0
2018-Jun-10 08:09N 41°16' E 031°23'0 0.0
2018-Jun-10 08:00N 41°16' E 031°23'0 0.0
2018-Jun-10 07:30N 41°16' E 031°23'0 0.0
2018-Jun-10 04:54N 41°16' E 031°23'0 0.0
2018-Jun-10 04:27N 41°16' E 031°23'0 0.0
2018-Jun-10 03:54N 41°16' E 031°23'0 0.0
2018-Jun-10 03:24N 41°16' E 031°23'0 0.0
2018-Jun-10 02:45N 41°16' E 031°23'0 0.0
2018-Jun-10 02:30N 41°16' E 031°23'0 0.0
2018-Jun-10 00:57N 41°16' E 031°23'0 0.0
2018-Jun-10 00:21N 41°16' E 031°23'0 0.0
2018-Jun-09 23:39N 41°16' E 031°23'0 0.0
2018-Jun-09 23:15N 41°16' E 031°23'0 0.0
2018-Jun-09 23:00N 41°16' E 031°23'0 0.0
2018-Jun-09 22:21N 41°16' E 031°23'0 0.0
2018-Jun-09 22:00N 41°16' E 031°23'0 0.0
2018-Jun-09 21:30N 41°16' E 031°23'0 0.0
2018-Jun-09 21:00N 41°16' E 031°23'0 0.0
2018-Jun-09 20:27N 41°16' E 031°23'0 0.0
2018-Jun-09 19:54N 41°16' E 031°23'0 0.0
2018-Jun-09 19:30N 41°16' E 031°23'0 0.0
2018-Jun-09 18:39N 41°16' E 031°23'0 0.0
2018-Jun-09 18:30N 41°16' E 031°23'0 0.0
2018-Jun-09 18:00N 41°16' E 031°23'0 0.0
2018-Jun-09 17:30N 41°16' E 031°23'0 0.0
2018-Jun-09 17:00N 41°16' E 031°23'0 0.0
2018-Jun-09 16:30N 41°16' E 031°23'0 0.0
2018-Jun-09 16:00N 41°16' E 031°23'0 0.0
2018-Jun-09 14:54N 41°16' E 031°23'0 0.0
2018-Jun-09 14:30N 41°16' E 031°23'0 0.0
2018-Jun-09 14:00N 41°16' E 031°23'0 0.0
2018-Jun-09 13:18N 41°16' E 031°23'0 0.0
2018-Jun-09 13:00N 41°16' E 031°23'0 0.0
2018-Jun-09 12:30N 41°16' E 031°23'0 0.0
2018-Jun-09 04:18N 41°16' E 031°23'0 0.0
2018-Jun-08 22:45N 41°16' E 031°23'0 0.0
2018-Jun-08 18:45N 41°16' E 031°23'0 0.0
2018-Jun-08 18:27N 41°16' E 031°23'0 0.0
2018-Jun-08 16:54N 41°16' E 031°23'0 0.0
2018-Jun-08 16:27N 41°16' E 031°23'0 0.0
2018-Jun-08 15:57N 41°16' E 031°23'  

Dump ship's entire track history